Latest Coastal Weather Observations for Mackay

IDQ60701

Issued at 8:35 pm EST Wednesday 1 October 2014 (issued every 10 minutes, with the page automatically refreshed every 10 minutes)

About coastal observations | Map of coastal stations | Coastal observations for QLD | Marine services | Other Formats
Station Details ID: 033119 Name: MACKAY M.O Lat: -21.12 Lon: 149.22 Height: 30.26 m
Data from the previous 72 hours. | See also: Recent months at Mackay
Date/Time
EST
Temp

°C
Wind Pressure Rain
since 9am
mm
Weather Cloud Vis
km
Sea
Height
m
Swell
Dir
 
Speed
knots
Gust
knots
hPa Trend Height
m
Period
s
Dir
01/08:30pm 19.7 N 4 5 1016.4 - 0.0 - - - - - - -
01/08:00pm 19.8 N 3 5 1016.2 - 0.0 - - - - - - -
01/07:30pm 20.4 NE 4 6 1016.2 - 0.0 - - - - - - -
01/07:00pm 20.7 NE 4 6 1016.1 - 0.0 - - - - - - -
01/06:30pm 20.8 NE 5 7 1015.9 - 0.0 - - - - - - -
01/06:00pm 21.4 ENE 5 9 1015.7 F 0.0 - - - - - - -
01/05:30pm 22.4 ENE 6 9 1015.6 - 0.0 - - - - - - -
01/05:00pm 23.5 ENE 5 8 1015.5 - 0.0 - - 10 - - - -
01/04:30pm 24.0 NE 5 8 1015.4 - 0.0 - - 10 - - - -
01/04:00pm 24.2 NE 6 9 1015.4 - 0.0 - Mostly clear 10 - - - -
01/03:30pm 24.7 ENE 7 10 1015.5 - 0.0 - - 10 - - - -
01/03:00pm 25.0 ENE 6 11 1015.7 F 0.0 Fine Clear 30 - - - -
01/02:30pm 24.9 ENE 7 11 1016.1 - 0.0 - Mostly clear 10 - - - -
01/02:00pm 25.3 ENE 7 12 1016.3 - 0.0 - Mostly clear 10 - - - -
01/01:30pm 24.9 ENE 8 13 1016.8 - 0.0 - Mostly clear 10 - - - -
01/01:00pm 24.4 E 10 12 1017.3 - 0.0 - Mostly clear 10 - - - -
01/12:30pm 24.9 E 8 11 1017.7 - 0.0 - Mostly clear 10 - - - -
01/12:00pm 23.7 ESE 6 9 1018.3 F 0.0 Fine Mostly clear 30 - - - -
01/11:30am 23.8 ESE 6 10 1018.7 - 0.0 - Mostly clear 10 - - - -
01/11:00am 23.5 ESE 6 9 1019.2 - 0.0 - Mostly clear 10 - - - -
01/10:30am 23.5 ESE 6 9 1019.3 - 0.0 - Mostly clear 10 - - - -
01/10:00am 23.9 SE 6 9 1019.6 - 0.0 - Mostly clear 10 - - - -
01/09:30am 23.1 SSE 6 9 1019.9 - 0.0 - Mostly clear 10 - - - -
01/09:00am 23.1 SSE 6 8 1019.9 S 0.0 Fine Mostly clear 30 - - - -
01/08:30am 21.9 S 5 7 1019.7 - 0.0 - Mostly clear 10 - - - -
01/08:00am 19.6 SW 6 8 1019.5 - 0.0 - Mostly clear 10 - - - -
01/07:30am 17.8 SW 6 8 1019.4 - 0.0 - Mostly clear 10 - - - -
01/07:00am 16.0 SW 8 10 1019.0 - 0.0 - Mostly clear 10 - - - -
01/06:30am 14.7 SW 8 9 1018.6 - 0.0 - Mostly clear 10 - - - -
01/06:00am 14.3 SW 8 11 1018.4 F 0.0 Fine Mostly clear 30 - - - -
01/05:30am 14.3 SW 7 9 1018.1 - 0.0 - - - - - - -
01/05:00am 14.7 SW 7 9 1018.1 - 0.0 - - - - - - -
01/04:30am 14.8 WSW 9 11 1017.8 - 0.0 - - - - - - -
01/04:00am 15.1 SW 7 9 1017.6 - 0.0 - - - - - - -
01/03:30am 15.3 SW 7 9 1017.7 - 0.0 - Partly cloudy - - - - -
01/03:00am 15.5 SW 6 7 1017.7 - 0.0 - - - - - - -
01/02:30am 15.7 WSW 6 7 1017.9 - 0.0 - Partly cloudy - - - - -
01/02:00am 15.7 SW 7 9 1018.3 - 0.0 - - - - - - -
01/01:30am 15.9 SW 7 8 1018.6 - 0.0 - Partly cloudy - - - - -
01/01:00am 16.4 WSW 6 8 1018.8 - 0.0 - Partly cloudy - - - - -
01/12:30am 16.5 SW 6 7 1019.1 - 0.0 - Partly cloudy - - - - -
01/12:00am 16.8 SW 6 7 1019.3 - 0.0 - Mostly clear - - - - -
 
Date/Time
EST
Temp

°C
Wind Pressure Rain
since 9am
mm
Weather Cloud Vis
km
Sea
Height
m
Swell
Dir
 
Speed
knots
Gust
knots
hPa Trend Height
m
Period
s
Dir
30/11:30pm 17.0 SW 6 7 1019.4 - 0.0 - - - - - - -
30/11:00pm 17.7 SW 5 6 1019.5 - 0.0 - - - - - - -
30/10:30pm 18.2 WSW 5 6 1019.6 - 0.0 - - - - - - -
30/10:00pm 20.6 ENE 3 6 1019.7 - 0.0 - - - - - - -
30/09:30pm 20.9 E 5 7 1019.7 - 0.0 - - - - - - -
30/09:00pm 20.9 ENE 5 8 1019.5 R 0.0 - - - - - - -
30/08:30pm 20.4 NE 4 6 1019.3 - 0.0 - - - - - - -
30/08:00pm 20.9 E 6 9 1019.2 - 0.0 - - - - - - -
30/07:30pm 21.1 ENE 5 7 1018.9 - 0.0 - - - - - - -
30/07:00pm 21.3 E 6 9 1018.4 - 0.0 - - - - - - -
30/06:30pm 21.3 E 5 8 1018.0 - 0.0 - - - - - - -
30/06:00pm 21.7 ESE 6 8 1017.6 F 0.0 - - - - - - -
30/05:30pm 22.1 ESE 6 9 1017.3 - 0.0 - Partly cloudy - - - - -
30/05:00pm 22.8 SE 6 9 1017.0 - 0.0 - Mostly clear 10 - - - -
30/04:30pm 23.2 SE 7 10 1017.0 - 0.0 - Mostly clear 10 - - - -
30/04:00pm 23.8 SE 6 11 1017.0 - 0.0 - Mostly clear 10 - - - -
30/03:30pm 24.2 SE 6 10 1017.0 - 0.0 - Mostly clear 10 - - - -
30/03:00pm 24.0 SE 7 11 1017.2 S 0.0 Fine Mostly clear 30 - - - -
30/02:30pm 24.6 SE 7 12 1017.4 - 0.0 - Mostly clear 10 - - - -
30/02:00pm 24.7 SE 7 11 1017.7 - 0.0 - Mostly clear 10 - - - -
30/01:30pm 24.3 ESE 6 9 1017.9 - 0.0 - Mostly clear 10 - - - -
30/01:00pm 25.4 SE 7 11 1018.3 - 0.0 - Mostly clear 10 - - - -
30/12:30pm 25.0 SE 7 11 1018.9 - 0.0 - Partly cloudy - - - - -
30/12:00pm 24.6 ESE 7 10 1019.5 F 0.0 - - - - - - -
30/11:30am 23.9 ESE 6 9 1019.9 - 0.0 - - - - - - -
30/11:00am 24.9 SE 5 8 1020.3 - 0.0 - Partly cloudy - - - - -
30/10:30am 24.0 SE 6 8 1020.7 - 0.0 - Partly cloudy - - - - -
30/10:00am 23.7 SE 5 7 1020.9 - 0.0 - - - - - - -
30/09:30am 23.2 SE 5 7 1021.1 - 0.0 - Mostly clear 10 - - - -
30/09:00am 23.0 SE 4 7 1021.1 S 0.2 Fine Mostly clear 30 - - - -
30/08:30am 22.0 SSW 4 6 1021.0 - 0.2 - Mostly clear 10 - - - -
30/08:00am 20.6 SW 5 8 1020.7 - 0.2 - Mostly clear 10 - - - -
30/07:30am 18.8 SW 6 8 1020.5 - 0.2 - Mostly clear 10 - - - -
30/07:00am 17.4 SW 6 9 1020.1 - 0.2 - Mostly clear 10 - - - -
30/06:30am 16.1 WSW 7 9 1019.7 - 0.2 - Mostly clear 10 - - - -
30/06:00am 15.6 SW 7 8 1019.4 R 0.2 Fine Mostly clear 30 - - - -
30/05:30am 15.6 SW 8 10 1019.1 - 0.2 - - - - - - -
30/05:00am 15.8 SW 7 9 1019.0 - 0.2 - - - - - - -
30/04:30am 16.0 WSW 6 8 1018.5 - 0.2 - - - - - - -
30/04:00am 16.1 SW 7 8 1018.3 - 0.2 - - - - - - -
30/03:30am 16.3 WSW 6 8 1018.3 - 0.2 - Partly cloudy - - - - -
30/03:00am 16.5 WSW 5 7 1018.4 - 0.2 - Mostly clear - - - - -
30/02:30am 16.7 WSW 6 8 1018.4 - 0.2 - Partly cloudy - - - - -
30/02:00am 18.4 SW 3 6 1018.6 - 0.2 - Partly cloudy - - - - -
30/01:30am 20.8 E 5 7 1018.8 - 0.2 - Partly cloudy - - - - -
30/01:00am 20.6 E 6 9 1019.0 - 0.2 - - - - - - -
30/12:30am 20.8 E 5 8 1019.3 - 0.2 - - - - - - -
30/12:00am 20.8 ESE 5 8 1019.6 - 0.2 - Mostly clear - - - - -
 
Date/Time
EST
Temp

°C
Wind Pressure Rain
since 9am
mm
Weather Cloud Vis
km
Sea
Height
m
Swell
Dir
 
Speed
knots
Gust
knots
hPa Trend Height
m
Period
s
Dir
29/11:30pm 20.9 E 5 9 1019.8 - 0.2 - Partly cloudy - - - - -
29/11:00pm 20.7 ESE 6 9 1020.0 - 0.2 - Partly cloudy - - - - -
29/10:30pm 20.9 ESE 7 11 1020.1 - 0.2 - Partly cloudy - - - - -
29/10:00pm 20.8 ESE 6 11 1020.1 - 0.2 - Partly cloudy - - - - -
29/09:30pm 20.9 SE 7 10 1019.9 - 0.2 - Partly cloudy - - - - -
29/09:00pm 21.2 ESE 7 11 1019.9 R 0.2 - Partly cloudy - - - - -
29/08:30pm 21.3 ESE 6 10 1019.6 - 0.2 - Partly cloudy - - - - -
29/08:00pm 21.4 ESE 7 11 1019.3 - 0.2 - Partly cloudy - - - - -
29/07:30pm 21.3 ESE 6 11 1018.8 - 0.2 - Partly cloudy - - - - -
29/07:00pm 21.3 ESE 6 10 1018.5 - 0.2 - Partly cloudy - - - - -
29/06:30pm 21.6 E 6 9 1018.0 - 0.2 - Partly cloudy - - - - -
29/06:00pm 21.7 E 6 10 1017.6 S 0.2 - - - - - - -
29/05:30pm 22.2 E 5 11 1017.4 - 0.2 - Partly cloudy - - - - -
29/05:00pm 22.5 E 7 11 1017.0 - 0.2 - - - - - - -
29/04:30pm 23.0 E 7 11 1016.8 - 0.2 - - - - - - -
29/04:00pm 23.3 E 7 12 1016.7 - 0.2 - - - - - - -
29/03:30pm 23.7 E 7 11 1016.8 - 0.2 - - - - - - -
29/03:00pm 23.7 ESE 7 13 1017.0 R 0.2 Fine Mostly clear 25 - - - -
29/02:30pm 23.9 E 8 14 1017.0 - 0.2 - Mostly clear 10 - - - -
29/02:00pm 24.0 ESE 7 13 1017.2 - 0.2 - - - - - - -
29/01:30pm 24.2 ESE 8 13 1017.7 - 0.2 - Mostly clear 10 - - - -
29/01:00pm 24.5 ESE 8 13 1018.1 - 0.2 - Partly cloudy 10 - - - -
29/12:30pm 24.9 SE 7 12 1018.6 - 0.2 - Partly cloudy 10 - - - -
29/12:00pm 24.0 SE 6 9 1019.1 S 0.2 Distant precip. Mostly cloudy 25 - - - -
29/11:30am 22.2 SE 5 8 1019.5 - 0.2 - Partly cloudy 10 - - - -
29/11:00am 22.9 SE 7 11 1019.8 - 0.2 - Partly cloudy 10 - - - -
29/10:30am 22.8 SE 5 8 1019.9 - 0.2 - Partly cloudy 10 - - - -
29/10:00am 23.2 ESE 6 9 1020.1 - 0.0 - Mostly clear 10 - - - -
29/09:30am 21.9 E 5 8 1020.2 - 0.0 - Partly cloudy 10 - - - -
29/09:00am 20.2 ESE 8 13 1020.1 F 0.2 Rain Mostly cloudy 20 - - - -
29/08:30am 22.0 SSE 4 7 1020.1 - 0.0 - Partly cloudy 10 - - - -
29/08:00am 20.8 SW 4 7 1020.0 - 0.0 - Partly cloudy 10 - - - -
29/07:30am 20.1 SW 5 8 1019.7 - 0.0 - Partly cloudy 10 - - - -
29/07:00am 18.7 SW 5 7 1019.4 - 0.0 - - - - - - -
29/06:30am 18.1 SW 7 10 1019.0 - 0.0 - - - - - - -
29/06:00am 17.8 SW 4 6 1018.7 R 0.0 - - - - - - -
29/05:30am 18.5 SW 4 6 1018.4 - 0.0 - - - - - - -
29/05:00am 20.7 ESE 6 10 1017.8 - 0.0 - - - - - - -
29/04:30am 21.0 ESE 6 10 1017.5 - 0.0 - - - - - - -
29/04:00am 21.3 E 6 10 1017.3 - 0.0 - - - - - - -
29/03:30am 21.3 E 7 11 1017.3 - 0.0 - - - - - - -
29/03:00am 21.4 E 5 8 1017.3 - 0.0 - - - - - - -
29/02:30am 21.2 E 6 10 1017.5 - 0.0 - - - - - - -
29/02:00am 21.4 E 7 11 1017.7 - 0.0 - - - - - - -
29/01:30am 21.5 E 6 10 1018.0 - 0.0 - - - - - - -
29/01:00am 21.6 E 7 13 1018.3 - 0.0 - - - - - - -
29/12:30am 21.5 E 8 12 1018.4 - 0.0 - - - - - - -
29/12:00am 21.6 E 8 12 1018.5 - 0.0 - - - - - - -
 
Date/Time
EST
Temp

°C
Wind Pressure Rain
since 9am
mm
Weather Cloud Vis
km
Sea
Height
m
Swell
Dir
 
Speed
knots
Gust
knots
hPa Trend Height
m
Period
s
Dir
28/11:30pm 21.6 ENE 9 14 1018.5 - 0.0 - - - - - - -
28/11:00pm 21.6 E 9 13 1018.7 - 0.0 - - - - - - -
28/10:30pm 21.5 ENE 9 14 1018.9 - 0.0 - - - - - - -
28/10:00pm 21.6 E 9 13 1019.3 - 0.0 - - - - - - -
28/09:30pm 21.8 E 9 12 1019.2 - 0.0 - - - - - - -
28/09:00pm 21.8 E 8 11 1019.2 R 0.0 - - - - - - -

Other Formats:

Comma delimited format used in spreadsheet applications
http://www.bom.gov.au/fwo/IDQ60701/IDQ60701.94367.axf

JavaScript Object Notation format (JSON) in row-major order
http://www.bom.gov.au/fwo/IDQ60701/IDQ60701.94367.json